sensor_id;sensor_type;location;lat;lon;timestamp;pressure;altitude;pressure_sealevel;temperature;humidity
73817;BME280;62146;53.232;-1.304;2023-04-09T00:00:37;101448.41;;;8.81;100.00
73817;BME280;62146;53.232;-1.304;2023-04-09T00:03:04;101444.72;;;8.76;100.00
73817;BME280;62146;53.232;-1.304;2023-04-09T00:05:30;101448.22;;;8.76;100.00
73817;BME280;62146;53.232;-1.304;2023-04-09T00:07:57;101442.09;;;8.69;100.00
73817;BME280;62146;53.232;-1.304;2023-04-09T00:10:23;101444.09;;;8.67;100.00
73817;BME280;62146;53.232;-1.304;2023-04-09T00:12:50;101449.41;;;8.67;100.00
73817;BME280;62146;53.232;-1.304;2023-04-09T00:15:16;101450.81;;;8.63;100.00
73817;BME280;62146;53.232;-1.304;2023-04-09T00:17:56;101441.66;;;8.59;100.00
73817;BME280;62146;53.232;-1.304;2023-04-09T00:20:23;101430.50;;;8.57;100.00
73817;BME280;62146;53.232;-1.304;2023-04-09T00:22:49;101432.50;;;8.55;100.00
73817;BME280;62146;53.232;-1.304;2023-04-09T00:25:17;101435.53;;;8.53;100.00
73817;BME280;62146;53.232;-1.304;2023-04-09T00:27:45;101437.19;;;8.54;100.00
73817;BME280;62146;53.232;-1.304;2023-04-09T00:30:12;101434.75;;;8.52;100.00
73817;BME280;62146;53.232;-1.304;2023-04-09T00:32:38;101429.66;;;8.51;100.00
73817;BME280;62146;53.232;-1.304;2023-04-09T00:35:05;101429.66;;;8.51;100.00
73817;BME280;62146;53.232;-1.304;2023-04-09T00:37:32;101428.63;;;8.52;100.00
73817;BME280;62146;53.232;-1.304;2023-04-09T00:39:59;101423.56;;;8.50;100.00
73817;BME280;62146;53.232;-1.304;2023-04-09T00:42:25;101424.97;;;8.46;100.00
73817;BME280;62146;53.232;-1.304;2023-04-09T00:44:52;101425.78;;;8.47;100.00
73817;BME280;62146;53.232;-1.304;2023-04-09T00:47:18;101423.16;;;8.47;100.00
73817;BME280;62146;53.232;-1.304;2023-04-09T00:49:45;101416.63;;;8.43;100.00
73817;BME280;62146;53.232;-1.304;2023-04-09T00:52:12;101419.06;;;8.38;100.00
73817;BME280;62146;53.232;-1.304;2023-04-09T00:54:38;101417.44;;;8.37;100.00
73817;BME280;62146;53.232;-1.304;2023-04-09T00:57:05;101413.16;;;8.36;100.00
73817;BME280;62146;53.232;-1.304;2023-04-09T00:59:32;101404.03;;;8.38;100.00
73817;BME280;62146;53.232;-1.304;2023-04-09T01:01:58;101403.19;;;8.31;100.00
73817;BME280;62146;53.232;-1.304;2023-04-09T01:04:25;101398.31;;;8.28;100.00
73817;BME280;62146;53.232;-1.304;2023-04-09T01:06:58;101395.06;;;8.27;100.00
73817;BME280;62146;53.232;-1.304;2023-04-09T01:09:40;101389.53;;;8.22;100.00
73817;BME280;62146;53.232;-1.304;2023-04-09T01:15:06;101381.63;;;8.15;100.00
73817;BME280;62146;53.232;-1.304;2023-04-09T01:20:15;101367.78;;;8.07;100.00
73817;BME280;62146;53.232;-1.304;2023-04-09T01:25:59;101357.44;;;8.12;100.00
73817;BME280;62146;53.232;-1.304;2023-04-09T01:28:56;101357.84;;;8.09;100.00
73817;BME280;62146;53.232;-1.304;2023-04-09T01:31:30;101362.31;;;8.08;100.00
73817;BME280;62146;53.232;-1.304;2023-04-09T01:33:58;101360.06;;;8.05;100.00
73817;BME280;62146;53.232;-1.304;2023-04-09T01:36:28;101353.97;;;8.05;100.00
73817;BME280;62146;53.232;-1.304;2023-04-09T01:38:56;101354.31;;;8.02;100.00
73817;BME280;62146;53.232;-1.304;2023-04-09T01:41:26;101355.13;;;8.02;100.00
73817;BME280;62146;53.232;-1.304;2023-04-09T01:43:52;101352.50;;;8.02;100.00
73817;BME280;62146;53.232;-1.304;2023-04-09T01:46:20;101346.63;;;8.01;100.00
73817;BME280;62146;53.232;-1.304;2023-04-09T01:48:48;101354.72;;;7.99;100.00
73817;BME280;62146;53.232;-1.304;2023-04-09T01:51:15;101355.75;;;7.98;100.00
73817;BME280;62146;53.232;-1.304;2023-04-09T01:53:42;101358.59;;;7.97;100.00
73817;BME280;62146;53.232;-1.304;2023-04-09T01:56:09;101364.88;;;7.96;100.00
73817;BME280;62146;53.232;-1.304;2023-04-09T01:58:36;101357.56;;;7.98;100.00
73817;BME280;62146;53.232;-1.304;2023-04-09T02:01:11;101353.97;;;8.05;100.00
73817;BME280;62146;53.232;-1.304;2023-04-09T02:03:45;101353.16;;;8.11;100.00
73817;BME280;62146;53.232;-1.304;2023-04-09T02:09:06;101347.69;;;8.12;100.00
73817;BME280;62146;53.232;-1.304;2023-04-09T02:11:36;101335.06;;;8.14;100.00
73817;BME280;62146;53.232;-1.304;2023-04-09T02:14:04;101338.34;;;8.16;100.00
73817;BME280;62146;53.232;-1.304;2023-04-09T02:16:34;101336.72;;;8.15;100.00
73817;BME280;62146;53.232;-1.304;2023-04-09T02:19:01;101329.22;;;8.19;100.00
73817;BME280;62146;53.232;-1.304;2023-04-09T02:21:28;101330.19;;;8.18;100.00
73817;BME280;62146;53.232;-1.304;2023-04-09T02:23:55;101329.41;;;8.17;100.00
73817;BME280;62146;53.232;-1.304;2023-04-09T02:26:21;101322.50;;;8.16;100.00
73817;BME280;62146;53.232;-1.304;2023-04-09T02:28:49;101320.88;;;8.15;100.00
73817;BME280;62146;53.232;-1.304;2023-04-09T02:31:16;101326.34;;;8.14;100.00
73817;BME280;62146;53.232;-1.304;2023-04-09T02:33:43;101331.19;;;8.10;100.00
73817;BME280;62146;53.232;-1.304;2023-04-09T02:36:11;101324.69;;;8.06;100.00
73817;BME280;62146;53.232;-1.304;2023-04-09T02:38:41;101319.03;;;8.09;100.00
73817;BME280;62146;53.232;-1.304;2023-04-09T02:41:08;101321.59;;;8.03;100.00
73817;BME280;62146;53.232;-1.304;2023-04-09T02:43:35;101314.72;;;8.02;100.00
73817;BME280;62146;53.232;-1.304;2023-04-09T02:46:01;101320.78;;;8.02;100.00
73817;BME280;62146;53.232;-1.304;2023-04-09T02:48:28;101309.00;;;7.99;100.00
73817;BME280;62146;53.232;-1.304;2023-04-09T02:50:56;101312.47;;;7.99;100.00
73817;BME280;62146;53.232;-1.304;2023-04-09T02:53:22;101311.06;;;7.97;100.00
73817;BME280;62146;53.232;-1.304;2023-04-09T02:55:49;101314.28;;;7.99;100.00
73817;BME280;62146;53.232;-1.304;2023-04-09T02:58:15;101317.56;;;8.01;100.00
73817;BME280;62146;53.232;-1.304;2023-04-09T03:00:42;101313.91;;;8.01;100.00
73817;BME280;62146;53.232;-1.304;2023-04-09T03:03:08;101309.63;;;8.01;100.00
73817;BME280;62146;53.232;-1.304;2023-04-09T03:05:36;101308.22;;;8.04;100.00
73817;BME280;62146;53.232;-1.304;2023-04-09T03:08:03;101310.69;;;8.06;100.00
73817;BME280;62146;53.232;-1.304;2023-04-09T03:10:29;101305.41;;;8.06;100.00
73817;BME280;62146;53.232;-1.304;2023-04-09T03:12:56;101304.78;;;8.04;100.00
73817;BME280;62146;53.232;-1.304;2023-04-09T03:15:22;101309.06;;;8.05;100.00
73817;BME280;62146;53.232;-1.304;2023-04-09T03:17:49;101300.28;;;8.04;100.00
73817;BME280;62146;53.232;-1.304;2023-04-09T03:20:16;101299.66;;;8.02;100.00
73817;BME280;62146;53.232;-1.304;2023-04-09T03:22:42;101295.84;;;8.05;100.00
73817;BME280;62146;53.232;-1.304;2023-04-09T03:25:09;101296.84;;;8.04;100.00
73817;BME280;62146;53.232;-1.304;2023-04-09T03:27:35;101302.75;;;8.06;100.00
73817;BME280;62146;53.232;-1.304;2023-04-09T03:30:02;101304.19;;;8.08;100.00
73817;BME280;62146;53.232;-1.304;2023-04-09T03:32:29;101301.72;;;8.07;100.00
73817;BME280;62146;53.232;-1.304;2023-04-09T03:34:56;101302.94;;;8.04;100.00
73817;BME280;62146;53.232;-1.304;2023-04-09T03:37:22;101303.13;;;8.03;100.00
73817;BME280;62146;53.232;-1.304;2023-04-09T03:39:49;101305.56;;;7.98;100.00
73817;BME280;62146;53.232;-1.304;2023-04-09T03:42:15;101304.34;;;7.94;100.00
73817;BME280;62146;53.232;-1.304;2023-04-09T03:44:42;101298.22;;;7.87;100.00
73817;BME280;62146;53.232;-1.304;2023-04-09T03:47:08;101301.66;;;7.88;100.00
73817;BME280;62146;53.232;-1.304;2023-04-09T03:49:35;101301.06;;;7.86;100.00
73817;BME280;62146;53.232;-1.304;2023-04-09T03:52:02;101307.97;;;7.87;100.00
73817;BME280;62146;53.232;-1.304;2023-04-09T03:54:29;101296.38;;;7.88;100.00
73817;BME280;62146;53.232;-1.304;2023-04-09T03:56:55;101298.47;;;7.92;100.00
73817;BME280;62146;53.232;-1.304;2023-04-09T03:59:22;101292.34;;;7.92;100.00
73817;BME280;62146;53.232;-1.304;2023-04-09T04:01:49;101281.38;;;7.95;100.00
73817;BME280;62146;53.232;-1.304;2023-04-09T04:04:16;101286.47;;;7.96;100.00
73817;BME280;62146;53.232;-1.304;2023-04-09T04:06:42;101291.75;;;7.96;100.00
73817;BME280;62146;53.232;-1.304;2023-04-09T04:09:09;101284.44;;;7.98;100.00
73817;BME280;62146;53.232;-1.304;2023-04-09T04:11:36;101287.28;;;7.97;100.00
73817;BME280;62146;53.232;-1.304;2023-04-09T04:14:02;101287.06;;;7.98;100.00
73817;BME280;62146;53.232;-1.304;2023-04-09T04:16:28;101288.69;;;7.99;100.00
73817;BME280;62146;53.232;-1.304;2023-04-09T04:18:55;101282.41;;;8.00;100.00
73817;BME280;62146;53.232;-1.304;2023-04-09T04:21:22;101283.00;;;8.02;100.00
73817;BME280;62146;53.232;-1.304;2023-04-09T04:23:48;101277.56;;;8.03;100.00
73817;BME280;62146;53.232;-1.304;2023-04-09T04:26:15;101283.81;;;8.02;100.00
73817;BME280;62146;53.232;-1.304;2023-04-09T04:28:41;101267.38;;;8.01;100.00
73817;BME280;62146;53.232;-1.304;2023-04-09T04:31:09;101271.63;;;8.01;100.00
73817;BME280;62146;53.232;-1.304;2023-04-09T04:33:38;101273.25;;;8.02;100.00
73817;BME280;62146;53.232;-1.304;2023-04-09T04:38:32;101270.25;;;8.05;100.00
73817;BME280;62146;53.232;-1.304;2023-04-09T04:41:00;101266.16;;;8.03;100.00
73817;BME280;62146;53.232;-1.304;2023-04-09T04:43:26;101264.75;;;8.01;100.00
73817;BME280;62146;53.232;-1.304;2023-04-09T04:45:53;101261.47;;;7.99;100.00
73817;BME280;62146;53.232;-1.304;2023-04-09T04:48:21;101255.78;;;8.01;100.00
73817;BME280;62146;53.232;-1.304;2023-04-09T04:50:57;101252.34;;;8.01;100.00
73817;BME280;62146;53.232;-1.304;2023-04-09T04:53:24;101250.50;;;8.01;100.00
73817;BME280;62146;53.232;-1.304;2023-04-09T04:55:50;101250.28;;;8.03;100.00
73817;BME280;62146;53.232;-1.304;2023-04-09T04:58:17;101247.66;;;8.03;100.00
73817;BME280;62146;53.232;-1.304;2023-04-09T05:00:44;101239.94;;;8.01;100.00
73817;BME280;62146;53.232;-1.304;2023-04-09T05:03:11;101236.28;;;8.02;100.00
73817;BME280;62146;53.232;-1.304;2023-04-09T05:05:38;101242.38;;;8.03;100.00
73817;BME280;62146;53.232;-1.304;2023-04-09T05:08:05;101237.94;;;8.03;100.00
73817;BME280;62146;53.232;-1.304;2023-04-09T05:10:32;101240.75;;;8.02;100.00
73817;BME280;62146;53.232;-1.304;2023-04-09T05:12:58;101238.94;;;8.02;100.00
73817;BME280;62146;53.232;-1.304;2023-04-09T05:15:25;101243.41;;;8.02;100.00
73817;BME280;62146;53.232;-1.304;2023-04-09T05:17:52;101235.09;;;8.05;100.00
73817;BME280;62146;53.232;-1.304;2023-04-09T05:20:19;101227.38;;;8.03;100.00
73817;BME280;62146;53.232;-1.304;2023-04-09T05:22:46;101232.25;;;8.06;100.00
73817;BME280;62146;53.232;-1.304;2023-04-09T05:25:12;101228.00;;;8.05;100.00
73817;BME280;62146;53.232;-1.304;2023-04-09T05:27:41;101230.25;;;8.08;100.00
73817;BME280;62146;53.232;-1.304;2023-04-09T05:30:08;101226.56;;;8.09;100.00
73817;BME280;62146;53.232;-1.304;2023-04-09T05:32:35;101234.28;;;8.11;100.00
73817;BME280;62146;53.232;-1.304;2023-04-09T05:35:01;101230.66;;;8.12;100.00
73817;BME280;62146;53.232;-1.304;2023-04-09T05:37:28;101233.69;;;8.15;100.00
73817;BME280;62146;53.232;-1.304;2023-04-09T05:39:55;101226.75;;;8.14;100.00
73817;BME280;62146;53.232;-1.304;2023-04-09T05:42:22;101229.41;;;8.14;100.00
73817;BME280;62146;53.232;-1.304;2023-04-09T05:44:48;101230.63;;;8.18;100.00
73817;BME280;62146;53.232;-1.304;2023-04-09T05:47:15;101220.91;;;8.19;100.00
73817;BME280;62146;53.232;-1.304;2023-04-09T05:49:41;101213.97;;;8.18;100.00
73817;BME280;62146;53.232;-1.304;2023-04-09T05:52:08;101222.50;;;8.20;100.00
73817;BME280;62146;53.232;-1.304;2023-04-09T05:54:34;101216.59;;;8.18;100.00
73817;BME280;62146;53.232;-1.304;2023-04-09T05:57:01;101213.34;;;8.22;100.00
73817;BME280;62146;53.232;-1.304;2023-04-09T05:59:28;101219.66;;;8.21;100.00
73817;BME280;62146;53.232;-1.304;2023-04-09T06:01:54;101217.81;;;8.22;100.00
73817;BME280;62146;53.232;-1.304;2023-04-09T06:04:21;101217.63;;;8.23;100.00
73817;BME280;62146;53.232;-1.304;2023-04-09T06:06:48;101210.31;;;8.25;100.00
73817;BME280;62146;53.232;-1.304;2023-04-09T06:09:14;101211.91;;;8.26;100.00
73817;BME280;62146;53.232;-1.304;2023-04-09T06:11:41;101210.72;;;8.28;100.00
73817;BME280;62146;53.232;-1.304;2023-04-09T06:14:07;101207.84;;;8.30;100.00
73817;BME280;62146;53.232;-1.304;2023-04-09T06:16:34;101204.22;;;8.31;100.00
73817;BME280;62146;53.232;-1.304;2023-04-09T06:19:01;101189.97;;;8.32;100.00
73817;BME280;62146;53.232;-1.304;2023-04-09T06:21:28;101198.31;;;8.35;100.00
73817;BME280;62146;53.232;-1.304;2023-04-09T06:23:54;101193.25;;;8.34;100.00
73817;BME280;62146;53.232;-1.304;2023-04-09T06:26:21;101197.69;;;8.33;100.00
73817;BME280;62146;53.232;-1.304;2023-04-09T06:28:48;101195.66;;;8.35;100.00
73817;BME280;62146;53.232;-1.304;2023-04-09T06:31:14;101194.84;;;8.35;100.00
73817;BME280;62146;53.232;-1.304;2023-04-09T06:33:41;101185.91;;;8.36;100.00
73817;BME280;62146;53.232;-1.304;2023-04-09T06:36:07;101187.50;;;8.37;100.00
73817;BME280;62146;53.232;-1.304;2023-04-09T06:38:34;101192.81;;;8.37;100.00
73817;BME280;62146;53.232;-1.304;2023-04-09T06:41:00;101187.50;;;8.37;100.00
73817;BME280;62146;53.232;-1.304;2023-04-09T06:43:27;101189.16;;;8.38;100.00
73817;BME280;62146;53.232;-1.304;2023-04-09T06:45:53;101177.75;;;8.37;100.00
73817;BME280;62146;53.232;-1.304;2023-04-09T06:48:20;101179.59;;;8.37;100.00
73817;BME280;62146;53.232;-1.304;2023-04-09T06:50:46;101181.25;;;8.38;100.00
73817;BME280;62146;53.232;-1.304;2023-04-09T06:53:13;101181.25;;;8.38;100.00
73817;BME280;62146;53.232;-1.304;2023-04-09T06:55:40;101179.41;;;8.38;100.00
73817;BME280;62146;53.232;-1.304;2023-04-09T06:58:07;101183.88;;;8.38;100.00
73817;BME280;62146;53.232;-1.304;2023-04-09T07:00:33;101179.41;;;8.38;100.00
73817;BME280;62146;53.232;-1.304;2023-04-09T07:03:00;101181.03;;;8.39;100.00
73817;BME280;62146;53.232;-1.304;2023-04-09T07:05:28;101184.25;;;8.41;100.00
73817;BME280;62146;53.232;-1.304;2023-04-09T07:07:55;101198.09;;;8.43;100.00
73817;BME280;62146;53.232;-1.304;2023-04-09T07:10:22;101196.88;;;8.46;100.00
73817;BME280;62146;53.232;-1.304;2023-04-09T07:12:49;101203.78;;;8.47;100.00
73817;BME280;62146;53.232;-1.304;2023-04-09T07:15:15;101207.00;;;8.49;100.00
73817;BME280;62146;53.232;-1.304;2023-04-09T07:17:42;101208.66;;;8.50;100.00
73817;BME280;62146;53.232;-1.304;2023-04-09T07:20:09;101213.72;;;8.51;100.00
73817;BME280;62146;53.232;-1.304;2023-04-09T07:22:35;101210.88;;;8.53;100.00
73817;BME280;62146;53.232;-1.304;2023-04-09T07:25:02;101207.41;;;8.52;100.00
73817;BME280;62146;53.232;-1.304;2023-04-09T07:27:29;101202.94;;;8.53;100.00
73817;BME280;62146;53.232;-1.304;2023-04-09T07:29:57;101211.47;;;8.55;100.00
73817;BME280;62146;53.232;-1.304;2023-04-09T07:32:24;101208.84;;;8.55;100.00
73817;BME280;62146;53.232;-1.304;2023-04-09T07:34:53;101203.56;;;8.55;100.00
73817;BME280;62146;53.232;-1.304;2023-04-09T07:37:20;101208.84;;;8.55;100.00
73817;BME280;62146;53.232;-1.304;2023-04-09T07:39:47;101210.47;;;8.55;100.00
73817;BME280;62146;53.232;-1.304;2023-04-09T07:42:14;101199.06;;;8.55;100.00
73817;BME280;62146;53.232;-1.304;2023-04-09T07:44:41;101195.41;;;8.56;100.00
73817;BME280;62146;53.232;-1.304;2023-04-09T07:47:09;101204.13;;;8.56;100.00
73817;BME280;62146;53.232;-1.304;2023-04-09T07:49:36;101200.69;;;8.56;100.00
73817;BME280;62146;53.232;-1.304;2023-04-09T07:52:03;101210.28;;;8.57;100.00
73817;BME280;62146;53.232;-1.304;2023-04-09T07:54:31;101204.13;;;8.56;100.00
73817;BME280;62146;53.232;-1.304;2023-04-09T07:56:58;101200.50;;;8.57;100.00
73817;BME280;62146;53.232;-1.304;2023-04-09T07:59:25;101203.72;;;8.59;100.00
73817;BME280;62146;53.232;-1.304;2023-04-09T08:01:52;101200.06;;;8.60;100.00
73817;BME280;62146;53.232;-1.304;2023-04-09T08:04:19;101194.78;;;8.60;100.00
73817;BME280;62146;53.232;-1.304;2023-04-09T08:06:46;101190.34;;;8.61;100.00
73817;BME280;62146;53.232;-1.304;2023-04-09T08:09:16;101197.22;;;8.62;100.00
73817;BME280;62146;53.232;-1.304;2023-04-09T08:11:44;101185.63;;;8.63;100.00
73817;BME280;62146;53.232;-1.304;2023-04-09T08:14:11;101180.97;;;8.65;100.00
73817;BME280;62146;53.232;-1.304;2023-04-09T08:16:39;101166.94;;;8.64;100.00
73817;BME280;62146;53.232;-1.304;2023-04-09T08:19:07;101178.72;;;8.68;100.00
73817;BME280;62146;53.232;-1.304;2023-04-09T08:21:38;101182.16;;;8.69;100.00
73817;BME280;62146;53.232;-1.304;2023-04-09T08:24:05;101186.03;;;8.73;100.00
73817;BME280;62146;53.232;-1.304;2023-04-09T08:26:32;101176.03;;;8.75;100.00
73817;BME280;62146;53.232;-1.304;2023-04-09T08:28:59;101186.19;;;8.78;100.00
73817;BME280;62146;53.232;-1.304;2023-04-09T08:31:26;101184.38;;;8.78;100.00
73817;BME280;62146;53.232;-1.304;2023-04-09T08:33:52;101185.56;;;8.82;100.00
73817;BME280;62146;53.232;-1.304;2023-04-09T08:36:19;101188.03;;;8.83;100.00
73817;BME280;62146;53.232;-1.304;2023-04-09T08:38:47;101184.13;;;8.86;100.00
73817;BME280;62146;53.232;-1.304;2023-04-09T08:41:23;101188.19;;;8.88;100.00
73817;BME280;62146;53.232;-1.304;2023-04-09T08:43:51;101192.25;;;8.91;100.00
73817;BME280;62146;53.232;-1.304;2023-04-09T08:46:24;101197.91;;;8.94;100.00
73817;BME280;62146;53.232;-1.304;2023-04-09T08:48:54;101201.19;;;8.96;100.00
73817;BME280;62146;53.232;-1.304;2023-04-09T08:51:22;101198.13;;;8.99;100.00
73817;BME280;62146;53.232;-1.304;2023-04-09T08:53:56;101189.97;;;9.01;100.00
73817;BME280;62146;53.232;-1.304;2023-04-09T08:56:25;101182.66;;;9.03;100.00
73817;BME280;62146;53.232;-1.304;2023-04-09T08:58:52;101189.34;;;9.05;100.00
73817;BME280;62146;53.232;-1.304;2023-04-09T09:01:23;101187.88;;;9.09;100.00
73817;BME280;62146;53.232;-1.304;2023-04-09T09:04:04;101184.22;;;9.10;100.00
73817;BME280;62146;53.232;-1.304;2023-04-09T09:06:33;101185.63;;;9.12;100.00
73817;BME280;62146;53.232;-1.304;2023-04-09T09:11:33;101192.53;;;9.20;100.00
73817;BME280;62146;53.232;-1.304;2023-04-09T09:14:02;101191.06;;;9.24;100.00
73817;BME280;62146;53.232;-1.304;2023-04-09T09:16:29;101185.16;;;9.28;100.00
73817;BME280;62146;53.232;-1.304;2023-04-09T09:18:56;101180.25;;;9.32;100.00
73817;BME280;62146;53.232;-1.304;2023-04-09T09:21:24;101184.69;;;9.37;100.00
73817;BME280;62146;53.232;-1.304;2023-04-09T09:23:52;101176.13;;;9.42;100.00
73817;BME280;62146;53.232;-1.304;2023-04-09T09:26:22;101171.59;;;9.49;100.00
73817;BME280;62146;53.232;-1.304;2023-04-09T09:28:50;101173.19;;;9.56;100.00
73817;BME280;62146;53.232;-1.304;2023-04-09T09:31:19;101159.88;;;9.62;100.00
73817;BME280;62146;53.232;-1.304;2023-04-09T09:33:46;101151.47;;;9.72;100.00
73817;BME280;62146;53.232;-1.304;2023-04-09T09:36:14;101147.28;;;9.82;100.00
73817;BME280;62146;53.232;-1.304;2023-04-09T09:38:52;101125.41;;;9.93;100.00
73817;BME280;62146;53.232;-1.304;2023-04-09T09:41:20;101124.50;;;10.05;100.00
73817;BME280;62146;53.232;-1.304;2023-04-09T09:43:47;101144.97;;;10.16;100.00
73817;BME280;62146;53.232;-1.304;2023-04-09T09:46:14;101146.09;;;10.26;100.00
73817;BME280;62146;53.232;-1.304;2023-04-09T09:48:42;101141.13;;;10.36;100.00
73817;BME280;62146;53.232;-1.304;2023-04-09T09:51:10;101133.06;;;10.43;100.00
73817;BME280;62146;53.232;-1.304;2023-04-09T09:53:38;101134.63;;;10.50;100.00
73817;BME280;62146;53.232;-1.304;2023-04-09T09:56:06;101125.78;;;10.56;100.00
73817;BME280;62146;53.232;-1.304;2023-04-09T09:58:40;101130.19;;;10.62;100.00
73817;BME280;62146;53.232;-1.304;2023-04-09T10:01:11;101127.72;;;10.67;100.00
73817;BME280;62146;53.232;-1.304;2023-04-09T10:03:39;101130.50;;;10.71;100.00
73817;BME280;62146;53.232;-1.304;2023-04-09T10:06:07;101138.59;;;10.76;100.00
73817;BME280;62146;53.232;-1.304;2023-04-09T10:08:35;101124.66;;;10.81;100.00
73817;BME280;62146;53.232;-1.304;2023-04-09T10:11:04;101121.34;;;10.85;100.00
73817;BME280;62146;53.232;-1.304;2023-04-09T10:13:34;101113.97;;;10.87;100.00
73817;BME280;62146;53.232;-1.304;2023-04-09T10:16:03;101109.41;;;10.94;100.00
73817;BME280;62146;53.232;-1.304;2023-04-09T10:18:30;101098.91;;;10.99;100.00
73817;BME280;62146;53.232;-1.304;2023-04-09T10:21:11;101098.81;;;11.05;100.00
73817;BME280;62146;53.232;-1.304;2023-04-09T10:23:41;101098.72;;;11.12;100.00
73817;BME280;62146;53.232;-1.304;2023-04-09T10:26:09;101105.53;;;11.19;100.00
73817;BME280;62146;53.232;-1.304;2023-04-09T10:28:36;101100.38;;;11.24;100.00
73817;BME280;62146;53.232;-1.304;2023-04-09T10:31:04;101098.47;;;11.31;100.00
73817;BME280;62146;53.232;-1.304;2023-04-09T10:33:35;101090.38;;;11.37;100.00
73817;BME280;62146;53.232;-1.304;2023-04-09T10:36:04;101084.19;;;11.43;100.00
73817;BME280;62146;53.232;-1.304;2023-04-09T10:43:53;101058.91;;;11.63;100.00
73817;BME280;62146;53.232;-1.304;2023-04-09T10:46:35;101057.78;;;11.71;100.00
73817;BME280;62146;53.232;-1.304;2023-04-09T10:49:15;101050.84;;;11.81;100.00
73817;BME280;62146;53.232;-1.304;2023-04-09T10:51:50;101035.13;;;11.91;100.00
73817;BME280;62146;53.232;-1.304;2023-04-09T11:01:59;101026.94;;;12.42;100.00
73817;BME280;62146;53.232;-1.304;2023-04-09T11:04:50;101026.44;;;12.57;100.00
73817;BME280;62146;53.232;-1.304;2023-04-09T11:07:25;101022.00;;;12.73;100.00
73817;BME280;62146;53.232;-1.304;2023-04-09T11:09:52;101011.03;;;12.86;100.00
73817;BME280;62146;53.232;-1.304;2023-04-09T11:12:19;101003.56;;;12.99;100.00
73817;BME280;62146;53.232;-1.304;2023-04-09T11:14:46;101001.41;;;13.12;100.00
73817;BME280;62146;53.232;-1.304;2023-04-09T11:17:12;100999.00;;;13.27;100.00
73817;BME280;62146;53.232;-1.304;2023-04-09T11:19:39;100996.81;;;13.40;100.00
73817;BME280;62146;53.232;-1.304;2023-04-09T11:22:05;100991.69;;;13.55;100.00
73817;BME280;62146;53.232;-1.304;2023-04-09T11:24:42;100990.59;;;13.67;100.00
73817;BME280;62146;53.232;-1.304;2023-04-09T11:27:09;100982.22;;;13.80;100.00
73817;BME280;62146;53.232;-1.304;2023-04-09T11:29:36;100987.00;;;13.94;100.00
73817;BME280;62146;53.232;-1.304;2023-04-09T11:32:02;100972.00;;;14.10;100.00
73817;BME280;62146;53.232;-1.304;2023-04-09T11:34:31;100966.00;;;14.24;100.00
73817;BME280;62146;53.232;-1.304;2023-04-09T11:36:58;100972.63;;;14.43;100.00
73817;BME280;62146;53.232;-1.304;2023-04-09T11:39:25;100963.00;;;14.63;100.00
73817;BME280;62146;53.232;-1.304;2023-04-09T11:41:51;100956.78;;;14.83;100.00
73817;BME280;62146;53.232;-1.304;2023-04-09T11:44:21;100953.03;;;15.05;100.00
73817;BME280;62146;53.232;-1.304;2023-04-09T11:46:48;100959.03;;;15.22;100.00
73817;BME280;62146;53.232;-1.304;2023-04-09T11:49:16;100953.81;;;15.42;100.00
73817;BME280;62146;53.232;-1.304;2023-04-09T11:51:42;100944.34;;;15.60;100.00
73817;BME280;62146;53.232;-1.304;2023-04-09T11:54:10;100955.41;;;15.79;100.00
73817;BME280;62146;53.232;-1.304;2023-04-09T11:56:37;100949.88;;;15.95;100.00
73817;BME280;62146;53.232;-1.304;2023-04-09T11:59:04;100937.94;;;16.12;100.00
73817;BME280;62146;53.232;-1.304;2023-04-09T12:01:31;100938.53;;;16.29;100.00
73817;BME280;62146;53.232;-1.304;2023-04-09T12:03:59;100936.97;;;16.42;100.00
73817;BME280;62146;53.232;-1.304;2023-04-09T12:06:26;100931.63;;;16.52;100.00
73817;BME280;62146;53.232;-1.304;2023-04-09T12:08:57;100939.44;;;16.63;100.00
73817;BME280;62146;53.232;-1.304;2023-04-09T12:11:28;100929.03;;;16.72;100.00
73817;BME280;62146;53.232;-1.304;2023-04-09T12:14:00;100934.38;;;16.82;100.00
73817;BME280;62146;53.232;-1.304;2023-04-09T12:16:34;100926.88;;;16.93;100.00
73817;BME280;62146;53.232;-1.304;2023-04-09T12:19:01;100922.84;;;17.01;100.00
73817;BME280;62146;53.232;-1.304;2023-04-09T12:24:10;100921.81;;;17.26;100.00
73817;BME280;62146;53.232;-1.304;2023-04-09T12:26:37;100915.38;;;17.37;100.00
73817;BME280;62146;53.232;-1.304;2023-04-09T12:29:03;100908.09;;;17.47;100.00
73817;BME280;62146;53.232;-1.304;2023-04-09T12:31:30;100905.41;;;17.57;100.00
73817;BME280;62146;53.232;-1.304;2023-04-09T12:33:57;100903.50;;;17.63;100.00
73817;BME280;62146;53.232;-1.304;2023-04-09T12:36:23;100904.81;;;17.70;100.00
73817;BME280;62146;53.232;-1.304;2023-04-09T12:38:50;100894.34;;;17.78;100.00
73817;BME280;62146;53.232;-1.304;2023-04-09T12:41:17;100893.75;;;17.91;100.00
73817;BME280;62146;53.232;-1.304;2023-04-09T12:43:43;100886.72;;;18.05;100.00
73817;BME280;62146;53.232;-1.304;2023-04-09T12:46:10;100894.44;;;18.16;100.00
73817;BME280;62146;53.232;-1.304;2023-04-09T12:48:36;100889.34;;;18.24;100.00
73817;BME280;62146;53.232;-1.304;2023-04-09T12:51:03;100885.81;;;18.29;100.00
73817;BME280;62146;53.232;-1.304;2023-04-09T12:53:30;100876.91;;;18.33;100.00
73817;BME280;62146;53.232;-1.304;2023-04-09T12:55:57;100883.03;;;18.39;100.00
73817;BME280;62146;53.232;-1.304;2023-04-09T12:58:23;100872.84;;;18.41;100.00
73817;BME280;62146;53.232;-1.304;2023-04-09T13:00:50;100878.47;;;18.44;100.00
73817;BME280;62146;53.232;-1.304;2023-04-09T13:03:18;100873.88;;;18.45;100.00
73817;BME280;62146;53.232;-1.304;2023-04-09T13:05:45;100874.13;;;18.48;100.00
73817;BME280;62146;53.232;-1.304;2023-04-09T13:08:12;100873.28;;;18.52;100.00
73817;BME280;62146;53.232;-1.304;2023-04-09T13:10:39;100872.16;;;18.63;100.00
73817;BME280;62146;53.232;-1.304;2023-04-09T13:13:05;100868.06;;;18.71;100.00